createdAt,value
2018-05-24T00:00:47.460Z,0.00
2018-05-24T00:01:47.446Z,0.00
2018-05-24T00:02:47.390Z,0.00
2018-05-24T00:03:47.357Z,0.00
2018-05-24T00:04:47.320Z,0.00
2018-05-24T00:05:47.286Z,0.00
2018-05-24T00:06:47.249Z,0.00
2018-05-24T00:07:47.248Z,0.00
2018-05-24T00:08:47.179Z,0.00
2018-05-24T00:09:47.143Z,0.00
2018-05-24T00:10:47.110Z,0.00
2018-05-24T00:11:47.074Z,0.00
2018-05-24T00:12:47.040Z,0.00
2018-05-24T00:13:47.034Z,0.00
2018-05-24T00:14:46.972Z,0.00
2018-05-24T00:15:46.939Z,0.00
2018-05-24T00:16:46.903Z,0.00
2018-05-24T00:17:46.861Z,0.00
2018-05-24T00:18:46.831Z,0.00
2018-05-24T00:19:46.813Z,0.00
2018-05-24T00:20:46.760Z,0.00
2018-05-24T00:21:46.722Z,0.00
2018-05-24T00:22:46.689Z,0.00
2018-05-24T00:23:46.652Z,0.00
2018-05-24T00:24:46.620Z,0.00
2018-05-24T00:25:46.605Z,0.00
2018-05-24T00:26:46.549Z,0.00
2018-05-24T00:27:46.517Z,0.00
2018-05-24T00:28:46.474Z,0.00
2018-05-24T00:29:46.443Z,0.00
2018-05-24T00:30:46.405Z,0.00
2018-05-24T00:31:46.401Z,0.00
2018-05-24T00:32:46.334Z,0.00
2018-05-24T00:33:46.302Z,0.00
2018-05-24T00:34:46.264Z,0.00
2018-05-24T00:35:46.231Z,0.00
2018-05-24T00:36:46.207Z,0.00
2018-05-24T00:37:46.183Z,0.00
2018-05-24T00:38:46.126Z,0.00
2018-05-24T00:39:46.091Z,0.00
2018-05-24T00:40:46.052Z,0.00
2018-05-24T00:41:46.019Z,0.00
2018-05-24T00:42:45.985Z,0.00
2018-05-24T00:43:45.966Z,0.00
2018-05-24T00:44:45.912Z,0.00
2018-05-24T00:45:45.929Z,0.00
2018-05-24T00:46:45.842Z,0.00
2018-05-24T00:47:45.807Z,0.00
2018-05-24T00:48:45.776Z,0.00
2018-05-24T00:49:45.760Z,0.00
2018-05-24T00:50:45.727Z,0.00
2018-05-24T00:51:45.664Z,0.00
2018-05-24T00:52:45.632Z,0.00
2018-05-24T00:53:45.596Z,0.00
2018-05-24T00:54:45.575Z,0.00
2018-05-24T00:55:45.549Z,0.00
2018-05-24T00:56:45.491Z,0.00
2018-05-24T00:57:45.456Z,0.00
2018-05-24T00:58:45.424Z,0.00
2018-05-24T00:59:45.387Z,0.00
2018-05-24T01:00:45.349Z,0.00
2018-05-24T01:01:45.337Z,0.00
2018-05-24T01:02:45.280Z,0.00
2018-05-24T01:03:45.246Z,0.00
2018-05-24T01:04:45.213Z,0.00
2018-05-24T01:05:45.177Z,0.00
2018-05-24T01:06:45.140Z,0.00
2018-05-24T01:07:45.129Z,0.00
2018-05-24T01:08:45.070Z,0.00
2018-05-24T01:09:45.032Z,0.00
2018-05-24T01:10:45.000Z,0.00
2018-05-24T01:11:44.962Z,0.00
2018-05-24T01:12:44.929Z,0.00
2018-05-24T01:13:44.913Z,0.00
2018-05-24T01:14:44.860Z,0.00
2018-05-24T01:15:44.850Z,0.00
2018-05-24T01:16:44.786Z,0.00
2018-05-24T01:17:44.751Z,0.00
2018-05-24T01:18:44.718Z,0.00
2018-05-24T01:19:44.710Z,0.00
2018-05-24T01:20:44.644Z,0.00
2018-05-24T01:21:44.613Z,0.00
2018-05-24T01:22:44.575Z,0.00
2018-05-24T01:23:44.543Z,0.00
2018-05-24T01:24:44.503Z,0.00
2018-05-24T01:25:44.497Z,0.00
2018-05-24T01:26:44.433Z,0.00
2018-05-24T01:27:44.401Z,0.00
2018-05-24T01:28:44.368Z,0.00
2018-05-24T01:29:44.327Z,0.00
2018-05-24T01:30:44.296Z,0.00
2018-05-24T01:31:44.276Z,0.00
2018-05-24T01:32:44.225Z,0.00
2018-05-24T01:33:44.186Z,0.00
2018-05-24T01:34:44.153Z,0.00
2018-05-24T01:35:44.119Z,0.00
2018-05-24T01:36:44.085Z,0.00
2018-05-24T01:37:44.064Z,0.00
2018-05-24T01:38:44.016Z,0.00
2018-05-24T01:39:43.978Z,0.00
2018-05-24T01:40:43.947Z,0.00
2018-05-24T01:41:43.909Z,0.00
2018-05-24T01:42:43.871Z,0.00
2018-05-24T01:43:43.866Z,0.00
2018-05-24T01:44:43.807Z,0.00
2018-05-24T01:45:43.769Z,0.00
2018-05-24T01:46:43.729Z,0.00
2018-05-24T01:47:43.698Z,0.00
2018-05-24T01:48:43.659Z,0.00
2018-05-24T01:49:43.646Z,0.00
2018-05-24T01:50:43.590Z,0.00
2018-05-24T01:51:43.556Z,0.00
2018-05-24T01:52:43.517Z,0.00
2018-05-24T01:53:43.486Z,0.00
2018-05-24T01:54:43.447Z,0.00
2018-05-24T01:55:43.435Z,0.00
2018-05-24T01:56:43.377Z,0.00
2018-05-24T01:57:43.347Z,0.00
2018-05-24T01:58:43.306Z,0.00
2018-05-24T01:59:43.274Z,0.00
2018-05-24T02:00:43.236Z,0.00
2018-05-24T02:01:43.225Z,0.00
2018-05-24T02:02:43.168Z,0.00
2018-05-24T02:03:43.132Z,0.00
2018-05-24T02:04:43.099Z,0.00
2018-05-24T02:05:43.064Z,0.00
2018-05-24T02:06:43.027Z,0.00
2018-05-24T02:07:43.016Z,0.00
2018-05-24T02:08:42.957Z,0.00
2018-05-24T02:09:42.918Z,0.00
2018-05-24T02:10:42.888Z,0.00
2018-05-24T02:11:42.851Z,0.00
2018-05-24T02:12:42.816Z,0.00
2018-05-24T02:13:42.804Z,0.00
2018-05-24T02:14:42.747Z,0.00
2018-05-24T02:15:42.709Z,0.00
2018-05-24T02:16:42.676Z,0.00
2018-05-24T02:17:42.641Z,0.00
2018-05-24T02:18:42.604Z,0.00
2018-05-24T02:19:42.601Z,0.00
2018-05-24T02:20:42.539Z,0.00
2018-05-24T02:21:42.503Z,0.00
2018-05-24T02:22:42.463Z,0.00
2018-05-24T02:23:42.432Z,0.00
2018-05-24T02:24:42.394Z,0.00
2018-05-24T02:25:42.379Z,0.00
2018-05-24T02:26:42.323Z,0.00
2018-05-24T02:27:42.291Z,0.00
2018-05-24T02:28:42.250Z,0.00
2018-05-24T02:29:42.219Z,0.00
2018-05-24T02:30:42.181Z,0.00
2018-05-24T02:31:42.264Z,0.00
2018-05-24T02:32:42.115Z,0.00
2018-05-24T02:33:42.077Z,0.00
2018-05-24T02:34:42.044Z,0.00
2018-05-24T02:35:42.007Z,0.00
2018-05-24T02:36:41.975Z,0.00
2018-05-24T02:37:42.094Z,0.00
2018-05-24T02:38:41.901Z,0.00
2018-05-24T02:39:41.864Z,0.00
2018-05-24T02:40:41.835Z,0.00
2018-05-24T02:41:41.793Z,0.00
2018-05-24T02:42:41.763Z,0.00
2018-05-24T02:43:41.745Z,0.00
2018-05-24T02:44:41.690Z,0.00
2018-05-24T02:45:41.652Z,0.00
2018-05-24T02:46:41.619Z,0.00
2018-05-24T02:47:41.585Z,0.00
2018-05-24T02:48:41.550Z,0.00
2018-05-24T02:49:41.533Z,0.00
2018-05-24T02:50:41.478Z,0.00
2018-05-24T02:51:41.444Z,0.00
2018-05-24T02:52:41.408Z,0.00
2018-05-24T02:53:41.376Z,0.00
2018-05-24T02:54:41.335Z,0.00
2018-05-24T02:55:41.336Z,0.00
2018-05-24T02:56:41.262Z,0.00
2018-05-24T02:57:41.233Z,0.00
2018-05-24T02:58:41.194Z,0.00
2018-05-24T02:59:41.160Z,0.00
2018-05-24T03:00:41.130Z,0.00
2018-05-24T03:01:41.138Z,0.00
2018-05-24T03:02:41.052Z,0.00
2018-05-24T03:03:41.019Z,0.00
2018-05-24T03:04:40.982Z,0.00
2018-05-24T03:05:40.951Z,0.00
2018-05-24T03:06:40.937Z,0.00
2018-05-24T03:07:40.877Z,0.00
2018-05-24T03:08:40.845Z,0.00
2018-05-24T03:09:40.807Z,0.00
2018-05-24T03:10:40.775Z,0.00
2018-05-24T03:11:40.735Z,0.00
2018-05-24T03:12:40.727Z,0.00
2018-05-24T03:13:40.665Z,0.00
2018-05-24T03:14:40.631Z,0.00
2018-05-24T03:15:40.593Z,0.00
2018-05-24T03:16:40.560Z,0.00
2018-05-24T03:17:40.524Z,0.00
2018-05-24T03:18:40.516Z,0.00
2018-05-24T03:19:40.452Z,0.00
2018-05-24T03:20:40.419Z,4.00
2018-05-24T03:21:40.383Z,4.00
2018-05-24T03:22:40.346Z,4.00
2018-05-24T03:23:40.318Z,4.00
2018-05-24T03:24:40.297Z,4.00
2018-05-24T03:25:40.243Z,8.00
2018-05-24T03:26:40.209Z,8.00
2018-05-24T03:27:40.174Z,8.00
2018-05-24T03:28:40.135Z,8.00
2018-05-24T03:29:40.106Z,8.00
2018-05-24T03:30:40.098Z,12.00
2018-05-24T03:31:40.033Z,12.00
2018-05-24T03:32:39.992Z,16.00
2018-05-24T03:33:39.961Z,16.00
2018-05-24T03:34:39.926Z,20.00
2018-05-24T03:35:39.890Z,20.00
2018-05-24T03:36:39.897Z,20.00
2018-05-24T03:37:39.818Z,24.00
2018-05-24T03:38:39.790Z,28.00
2018-05-24T03:39:39.749Z,32.00
2018-05-24T03:40:39.718Z,32.00
2018-05-24T03:41:39.675Z,36.00
2018-05-24T03:42:39.776Z,40.00
2018-05-24T03:43:39.605Z,44.00
2018-05-24T03:44:39.576Z,44.00
2018-05-24T03:45:39.536Z,48.00
2018-05-24T03:46:39.503Z,52.00
2018-05-24T03:47:39.463Z,56.00
2018-05-24T03:48:39.472Z,60.00
2018-05-24T03:49:39.396Z,64.00
2018-05-24T03:50:39.362Z,68.00
2018-05-24T03:51:39.328Z,68.00
2018-05-24T03:52:39.290Z,72.00
2018-05-24T03:53:39.259Z,72.00
2018-05-24T03:54:39.241Z,76.00
2018-05-24T03:55:39.195Z,76.00
2018-05-24T03:56:39.145Z,80.00
2018-05-24T03:57:39.115Z,84.00
2018-05-24T03:58:39.076Z,92.00
2018-05-24T03:59:39.045Z,96.00
2018-05-24T04:00:39.030Z,104.00
2018-05-24T04:01:38.974Z,108.00
2018-05-24T04:02:38.935Z,112.00
2018-05-24T04:03:38.906Z,120.00
2018-05-24T04:04:38.864Z,128.00
2018-05-24T04:05:38.917Z,140.00
2018-05-24T04:06:38.915Z,144.00
2018-05-24T04:07:38.764Z,148.00
2018-05-24T04:08:38.725Z,156.00
2018-05-24T04:09:38.687Z,160.00
2018-05-24T04:10:38.657Z,168.00
2018-05-24T04:11:38.616Z,180.00
2018-05-24T04:12:38.602Z,184.00
2018-05-24T04:13:38.543Z,192.00
2018-05-24T04:14:38.512Z,204.00
2018-05-24T04:15:38.479Z,212.00
2018-05-24T04:16:38.442Z,224.00
2018-05-24T04:17:38.404Z,232.00
2018-05-24T04:18:38.393Z,248.00
2018-05-24T04:19:38.336Z,252.00
2018-05-24T04:20:38.300Z,272.00
2018-05-24T04:21:38.260Z,292.00
2018-05-24T04:22:38.235Z,312.00
2018-05-24T04:23:38.198Z,336.00
2018-05-24T04:24:38.182Z,352.00
2018-05-24T04:25:38.123Z,368.00
2018-05-24T04:26:38.088Z,384.00
2018-05-24T04:27:38.053Z,404.00
2018-05-24T04:28:38.014Z,408.00
2018-05-24T04:29:37.982Z,424.00
2018-05-24T04:30:38.056Z,444.00
2018-05-24T04:31:37.911Z,456.00
2018-05-24T04:32:37.877Z,472.00
2018-05-24T04:33:37.843Z,488.00
2018-05-24T04:34:37.805Z,500.00
2018-05-24T04:35:37.772Z,516.00
2018-05-24T04:36:37.756Z,524.00
2018-05-24T04:37:37.698Z,536.00
2018-05-24T04:38:37.665Z,544.00
2018-05-24T04:39:37.630Z,556.00
2018-05-24T04:40:37.591Z,568.00
2018-05-24T04:41:37.556Z,588.00
2018-05-24T04:42:37.548Z,592.00
2018-05-24T04:43:37.484Z,604.00
2018-05-24T04:44:37.451Z,620.00
2018-05-24T04:45:37.413Z,624.00
2018-05-24T04:46:37.378Z,632.00
2018-05-24T04:47:37.341Z,616.00
2018-05-24T04:48:37.327Z,644.00
2018-05-24T04:49:37.351Z,636.00
2018-05-24T04:50:37.237Z,652.00
2018-05-24T04:51:37.201Z,652.00
2018-05-24T04:52:37.165Z,652.00
2018-05-24T04:53:37.130Z,696.00
2018-05-24T04:54:37.121Z,708.00
2018-05-24T04:55:37.060Z,732.00
2018-05-24T04:56:37.025Z,728.00
2018-05-24T04:57:36.990Z,712.00
2018-05-24T04:58:36.952Z,776.00
2018-05-24T04:59:36.922Z,820.00
2018-05-24T05:00:36.904Z,840.00
2018-05-24T05:01:36.911Z,764.00
2018-05-24T05:02:36.811Z,964.00
2018-05-24T05:03:36.779Z,1024.00
2018-05-24T05:04:36.741Z,988.00
2018-05-24T05:05:36.707Z,1056.00
2018-05-24T05:06:36.689Z,1104.00
2018-05-24T05:07:36.636Z,1116.00
2018-05-24T05:08:36.599Z,1044.00
2018-05-24T05:09:36.567Z,1144.00
2018-05-24T05:10:36.529Z,960.00
2018-05-24T05:11:36.501Z,1092.00
2018-05-24T05:12:36.482Z,1120.00
2018-05-24T05:13:36.423Z,1064.00
2018-05-24T05:14:36.411Z,1032.00
2018-05-24T05:15:36.355Z,1088.00
2018-05-24T05:16:36.319Z,1020.00
2018-05-24T05:17:36.280Z,1044.00
2018-05-24T05:18:36.281Z,896.00
2018-05-24T05:19:36.246Z,860.00
2018-05-24T05:20:36.177Z,836.00
2018-05-24T05:21:36.143Z,820.00
2018-05-24T05:22:36.104Z,792.00
2018-05-24T05:23:36.072Z,776.00
2018-05-24T05:24:36.054Z,748.00
2018-05-24T05:25:36.004Z,792.00
2018-05-24T05:26:35.965Z,764.00
2018-05-24T05:27:35.931Z,728.00
2018-05-24T05:28:35.893Z,764.00
2018-05-24T05:29:35.860Z,788.00
2018-05-24T05:30:35.957Z,808.00
2018-05-24T05:31:35.790Z,796.00
2018-05-24T05:32:35.755Z,788.00
2018-05-24T05:33:35.717Z,772.00
2018-05-24T05:34:35.685Z,820.00
2018-05-24T05:35:35.646Z,908.00
2018-05-24T05:36:35.646Z,996.00
2018-05-24T05:37:35.665Z,972.00
2018-05-24T05:38:35.543Z,992.00
2018-05-24T05:39:35.507Z,1000.00
2018-05-24T05:40:35.472Z,1028.00
2018-05-24T05:41:35.435Z,1028.00
2018-05-24T05:42:35.425Z,1020.00
2018-05-24T05:43:35.365Z,1032.00
2018-05-24T05:44:35.331Z,968.00
2018-05-24T05:45:35.299Z,1004.00
2018-05-24T05:46:35.261Z,1012.00
2018-05-24T05:47:35.233Z,1016.00
2018-05-24T05:48:35.206Z,1028.00
2018-05-24T05:49:35.156Z,1028.00
2018-05-24T05:50:35.117Z,1044.00
2018-05-24T05:51:35.084Z,1040.00
2018-05-24T05:52:35.047Z,1040.00
2018-05-24T05:53:35.015Z,1068.00
2018-05-24T05:54:35.000Z,1064.00
2018-05-24T05:55:34.943Z,1064.00
2018-05-24T05:56:34.905Z,1056.00
2018-05-24T05:57:34.872Z,1052.00
2018-05-24T05:58:34.840Z,1080.00
2018-05-24T05:59:34.808Z,1140.00
2018-05-24T06:00:34.790Z,1052.00
2018-05-24T06:01:34.743Z,1044.00
2018-05-24T06:02:34.739Z,1116.00
2018-05-24T06:03:34.659Z,1200.00
2018-05-24T06:04:34.630Z,1140.00
2018-05-24T06:05:34.592Z,1124.00
2018-05-24T06:06:34.585Z,1100.00
2018-05-24T06:07:34.524Z,1116.00
2018-05-24T06:08:34.487Z,1116.00
2018-05-24T06:09:34.455Z,1124.00
2018-05-24T06:10:34.417Z,1040.00
2018-05-24T06:11:34.381Z,1132.00
2018-05-24T06:12:34.371Z,1072.00
2018-05-24T06:13:34.309Z,1168.00
2018-05-24T06:14:34.288Z,1140.00
2018-05-24T06:15:34.269Z,1032.00
2018-05-24T06:16:34.204Z,1000.00
2018-05-24T06:17:34.172Z,1028.00
2018-05-24T06:18:34.186Z,1016.00
2018-05-24T06:19:34.099Z,988.00
2018-05-24T06:20:34.148Z,984.00
2018-05-24T06:21:34.054Z,1096.00
2018-05-24T06:22:33.990Z,1108.00
2018-05-24T06:23:33.961Z,1060.00
2018-05-24T06:24:33.942Z,1044.00
2018-05-24T06:25:33.892Z,1072.00
2018-05-24T06:26:33.850Z,1092.00
2018-05-24T06:27:33.823Z,1120.00
2018-05-24T06:28:33.902Z,1120.00
2018-05-24T06:29:33.746Z,1120.00
2018-05-24T06:30:33.855Z,1128.00
2018-05-24T06:31:33.681Z,1120.00
2018-05-24T06:32:33.642Z,1144.00
2018-05-24T06:33:33.603Z,1144.00
2018-05-24T06:34:33.575Z,1156.00
2018-05-24T06:35:33.534Z,1144.00
2018-05-24T06:36:33.524Z,1144.00
2018-05-24T06:37:33.464Z,1172.00
2018-05-24T06:38:33.435Z,1184.00
2018-05-24T06:39:33.396Z,1212.00
2018-05-24T06:40:33.466Z,1256.00
2018-05-24T06:41:33.327Z,1296.00
2018-05-24T06:42:33.312Z,1316.00
2018-05-24T06:43:33.254Z,1188.00
2018-05-24T06:44:33.225Z,1328.00
2018-05-24T06:45:33.184Z,1340.00
2018-05-24T06:46:33.218Z,1376.00
2018-05-24T06:47:33.116Z,1392.00
2018-05-24T06:48:33.109Z,1424.00
2018-05-24T06:49:33.045Z,1448.00
2018-05-24T06:50:33.008Z,1456.00
2018-05-24T06:51:32.975Z,1456.00
2018-05-24T06:52:32.935Z,1432.00
2018-05-24T06:53:32.905Z,1416.00
2018-05-24T06:54:32.905Z,1396.00
2018-05-24T06:55:32.835Z,1412.00
2018-05-24T06:56:32.797Z,1404.00
2018-05-24T06:57:32.763Z,1428.00
2018-05-24T06:58:32.726Z,1464.00
2018-05-24T06:59:32.692Z,1552.00
2018-05-24T07:00:32.677Z,1556.00
2018-05-24T07:01:32.623Z,1540.00
2018-05-24T07:02:32.585Z,1516.00
2018-05-24T07:03:32.550Z,1524.00
2018-05-24T07:04:32.537Z,1524.00
2018-05-24T07:05:32.477Z,1540.00
2018-05-24T07:06:32.443Z,1600.00
2018-05-24T07:07:32.405Z,1612.00
2018-05-24T07:08:32.371Z,1632.00
2018-05-24T07:09:32.337Z,1672.00
2018-05-24T07:10:32.391Z,1740.00
2018-05-24T07:11:32.263Z,1696.00
2018-05-24T07:12:32.227Z,1796.00
2018-05-24T07:13:32.190Z,1676.00
2018-05-24T07:14:32.154Z,1676.00
2018-05-24T07:15:32.116Z,1832.00
2018-05-24T07:16:32.101Z,1512.00
2018-05-24T07:17:32.044Z,1504.00
2018-05-24T07:18:32.046Z,1460.00
2018-05-24T07:19:31.973Z,1572.00
2018-05-24T07:20:31.936Z,1552.00
2018-05-24T07:21:31.902Z,1452.00
2018-05-24T07:22:31.885Z,1392.00
2018-05-24T07:23:31.826Z,1328.00
2018-05-24T07:24:31.801Z,1312.00
2018-05-24T07:25:31.754Z,1196.00
2018-05-24T07:26:31.743Z,1212.00
2018-05-24T07:27:31.685Z,1152.00
2018-05-24T07:28:31.641Z,1096.00
2018-05-24T07:29:31.605Z,1076.00
2018-05-24T07:30:31.574Z,1104.00
2018-05-24T07:31:31.560Z,1148.00
2018-05-24T07:32:31.501Z,1144.00
2018-05-24T07:33:31.461Z,1104.00
2018-05-24T07:34:31.426Z,1112.00
2018-05-24T07:35:31.388Z,1128.00
2018-05-24T07:36:31.373Z,1152.00
2018-05-24T07:37:31.342Z,1200.00
2018-05-24T07:38:31.280Z,1352.00
2018-05-24T07:39:31.248Z,1560.00
2018-05-24T07:40:31.206Z,1572.00
2018-05-24T07:41:31.173Z,1556.00
2018-05-24T07:42:31.161Z,1536.00
2018-05-24T07:43:31.103Z,1488.00
2018-05-24T07:44:31.062Z,1600.00
2018-05-24T07:45:31.036Z,1752.00
2018-05-24T07:46:30.989Z,1940.00
2018-05-24T07:47:30.955Z,1956.00
2018-05-24T07:48:30.939Z,1828.00
2018-05-24T07:49:30.884Z,1848.00
2018-05-24T07:50:30.844Z,1904.00
2018-05-24T07:51:30.814Z,1900.00
2018-05-24T07:52:30.773Z,1732.00
2018-05-24T07:53:30.737Z,1652.00
2018-05-24T07:54:30.730Z,1608.00
2018-05-24T07:55:30.665Z,1564.00
2018-05-24T07:56:30.628Z,1564.00
2018-05-24T07:57:30.592Z,1564.00
2018-05-24T07:58:30.557Z,1592.00
2018-05-24T07:59:30.530Z,1648.00
2018-05-24T08:00:30.511Z,1568.00
2018-05-24T08:01:30.528Z,1452.00
2018-05-24T08:02:30.413Z,1460.00
2018-05-24T08:03:30.378Z,1436.00
2018-05-24T08:04:30.342Z,1388.00
2018-05-24T08:05:30.312Z,1504.00
2018-05-24T08:06:30.273Z,1528.00
2018-05-24T08:07:30.257Z,1640.00
2018-05-24T08:08:30.204Z,1700.00
2018-05-24T08:09:30.164Z,1796.00
2018-05-24T08:10:30.126Z,1852.00
2018-05-24T08:11:30.096Z,1920.00
2018-05-24T08:12:30.056Z,1984.00
2018-05-24T08:13:30.048Z,2036.00
2018-05-24T08:14:29.984Z,2072.00
2018-05-24T08:15:29.959Z,2152.00
2018-05-24T08:16:29.913Z,2152.00
2018-05-24T08:17:29.887Z,2124.00
2018-05-24T08:18:29.849Z,2108.00
2018-05-24T08:19:29.835Z,2088.00
2018-05-24T08:20:29.771Z,2052.00
2018-05-24T08:21:29.746Z,2044.00
2018-05-24T08:22:29.774Z,2076.00
2018-05-24T08:23:29.669Z,2108.00
2018-05-24T08:24:29.628Z,2100.00
2018-05-24T08:25:29.616Z,2092.00
2018-05-24T08:26:29.562Z,2084.00
2018-05-24T08:27:29.522Z,2100.00
2018-05-24T08:28:29.489Z,2180.00
2018-05-24T08:29:29.451Z,2252.00
2018-05-24T08:30:29.422Z,2332.00
2018-05-24T08:31:29.401Z,2420.00
2018-05-24T08:32:29.348Z,2504.00
2018-05-24T08:33:29.313Z,2572.00
2018-05-24T08:34:29.278Z,2616.00
2018-05-24T08:35:29.240Z,2652.00
2018-05-24T08:36:29.207Z,2680.00
2018-05-24T08:37:29.189Z,2700.00
2018-05-24T08:38:29.134Z,2700.00
2018-05-24T08:39:29.097Z,2684.00
2018-05-24T08:40:29.075Z,2668.00
2018-05-24T08:41:29.027Z,2660.00
2018-05-24T08:42:29.015Z,2656.00
2018-05-24T08:43:28.958Z,2632.00
2018-05-24T08:44:28.920Z,2620.00
2018-05-24T08:45:28.887Z,2624.00
2018-05-24T08:46:28.850Z,2608.00
2018-05-24T08:47:28.896Z,2620.00
2018-05-24T08:48:28.800Z,2652.00
2018-05-24T08:49:28.747Z,2704.00
2018-05-24T08:50:28.706Z,2784.00
2018-05-24T08:51:28.673Z,2920.00
2018-05-24T08:52:28.633Z,2888.00
2018-05-24T08:53:28.653Z,2764.00
2018-05-24T08:54:28.584Z,2768.00
2018-05-24T08:55:28.532Z,2732.00
2018-05-24T08:56:28.492Z,2644.00
2018-05-24T08:57:28.458Z,2616.00
2018-05-24T08:58:28.425Z,2572.00
2018-05-24T08:59:28.407Z,2428.00
2018-05-24T09:00:28.353Z,2440.00
2018-05-24T09:01:28.833Z,2376.00
2018-05-24T09:02:28.282Z,2328.00
2018-05-24T09:03:28.346Z,2244.00
2018-05-24T09:04:28.210Z,2248.00
2018-05-24T09:05:28.173Z,2224.00
2018-05-24T09:06:28.141Z,2228.00
2018-05-24T09:07:28.103Z,2220.00
2018-05-24T09:08:28.069Z,2112.00
2018-05-24T09:09:28.053Z,2072.00
2018-05-24T09:10:27.999Z,2076.00
2018-05-24T09:11:27.962Z,2188.00
2018-05-24T09:12:27.929Z,2256.00
2018-05-24T09:13:27.893Z,2260.00
2018-05-24T09:14:27.857Z,2256.00
2018-05-24T09:15:27.846Z,2212.00
2018-05-24T09:16:27.793Z,2144.00
2018-05-24T09:17:27.754Z,2124.00
2018-05-24T09:18:27.719Z,2088.00
2018-05-24T09:19:27.693Z,2032.00
2018-05-24T09:20:27.643Z,2044.00
2018-05-24T09:21:27.631Z,2044.00
2018-05-24T09:22:27.574Z,2108.00
2018-05-24T09:23:27.541Z,2144.00
2018-05-24T09:24:27.503Z,2160.00
2018-05-24T09:25:27.475Z,2184.00
2018-05-24T09:26:27.435Z,2200.00
2018-05-24T09:27:27.425Z,2144.00
2018-05-24T09:28:27.363Z,2092.00
2018-05-24T09:29:27.357Z,2036.00
2018-05-24T09:30:27.294Z,2060.00
2018-05-24T09:31:27.260Z,2076.00
2018-05-24T09:32:27.230Z,1960.00
2018-05-24T09:33:27.210Z,1848.00
2018-05-24T09:34:27.155Z,1808.00
2018-05-24T09:35:27.121Z,1928.00
2018-05-24T09:36:27.091Z,1900.00
2018-05-24T09:37:27.047Z,1852.00
2018-05-24T09:38:27.011Z,1780.00
2018-05-24T09:39:27.005Z,1732.00
2018-05-24T09:40:26.941Z,1700.00
2018-05-24T09:41:26.916Z,1680.00
2018-05-24T09:42:26.871Z,1652.00
2018-05-24T09:43:26.838Z,1520.00
2018-05-24T09:44:26.803Z,1488.00
2018-05-24T09:45:26.786Z,1532.00
2018-05-24T09:46:26.736Z,1576.00
2018-05-24T09:47:26.697Z,1620.00
2018-05-24T09:48:26.662Z,1696.00
2018-05-24T09:49:26.629Z,1816.00
2018-05-24T09:50:26.596Z,2024.00
2018-05-24T09:51:26.587Z,2256.00
2018-05-24T09:52:26.523Z,2196.00
2018-05-24T09:53:26.485Z,2112.00
2018-05-24T09:54:26.454Z,2024.00
2018-05-24T09:55:26.499Z,2108.00
2018-05-24T09:56:26.382Z,2148.00
2018-05-24T09:57:26.368Z,2148.00
2018-05-24T09:58:26.316Z,1920.00
2018-05-24T09:59:26.277Z,1696.00
2018-05-24T10:00:26.243Z,1588.00
2018-05-24T10:01:26.209Z,1568.00
2018-05-24T10:02:26.171Z,1504.00
2018-05-24T10:03:26.159Z,1464.00
2018-05-24T10:04:26.103Z,1428.00
2018-05-24T10:05:26.067Z,1544.00
2018-05-24T10:06:26.031Z,1512.00
2018-05-24T10:07:25.999Z,1520.00
2018-05-24T10:08:25.960Z,1632.00
2018-05-24T10:09:25.958Z,1728.00
2018-05-24T10:10:25.980Z,1740.00
2018-05-24T10:11:25.862Z,1652.00
2018-05-24T10:12:25.819Z,1672.00
2018-05-24T10:13:25.787Z,1724.00
2018-05-24T10:14:25.782Z,1704.00
2018-05-24T10:15:25.741Z,1692.00
2018-05-24T10:16:25.767Z,1692.00
2018-05-24T10:17:25.642Z,1720.00
2018-05-24T10:18:25.612Z,1768.00
2018-05-24T10:19:25.586Z,1816.00
2018-05-24T10:20:25.542Z,1880.00
2018-05-24T10:21:25.524Z,1956.00
2018-05-24T10:22:25.471Z,2072.00
2018-05-24T10:23:25.441Z,2204.00
2018-05-24T10:24:25.401Z,2320.00
2018-05-24T10:25:25.366Z,2412.00
2018-05-24T10:26:25.329Z,2452.00
2018-05-24T10:27:25.321Z,2436.00
2018-05-24T10:28:25.260Z,2404.00
2018-05-24T10:29:25.284Z,2380.00
2018-05-24T10:30:25.195Z,2372.00
2018-05-24T10:31:25.153Z,2384.00
2018-05-24T10:32:25.120Z,2436.00
2018-05-24T10:33:25.113Z,2496.00
2018-05-24T10:34:25.076Z,2576.00
2018-05-24T10:35:25.014Z,2716.00
2018-05-24T10:36:24.979Z,2892.00
2018-05-24T10:37:24.944Z,3036.00
2018-05-24T10:38:24.905Z,3160.00
2018-05-24T10:39:25.013Z,3264.00
2018-05-24T10:40:24.836Z,3360.00
2018-05-24T10:41:24.801Z,3448.00
2018-05-24T10:42:24.765Z,3524.00
2018-05-24T10:43:24.733Z,3544.00
2018-05-24T10:44:24.695Z,3524.00
2018-05-24T10:45:24.688Z,3524.00
2018-05-24T10:46:24.625Z,3512.00
2018-05-24T10:47:24.591Z,3424.00
2018-05-24T10:48:24.559Z,3352.00
2018-05-24T10:49:24.517Z,3264.00
2018-05-24T10:50:24.484Z,3240.00
2018-05-24T10:51:24.468Z,3244.00
2018-05-24T10:52:24.415Z,3252.00
2018-05-24T10:53:24.377Z,3284.00
2018-05-24T10:54:24.350Z,3312.00
2018-05-24T10:55:24.308Z,3368.00
2018-05-24T10:56:24.277Z,3416.00
2018-05-24T10:57:24.259Z,3440.00
2018-05-24T10:58:24.205Z,3416.00
2018-05-24T10:59:24.166Z,3380.00
2018-05-24T11:00:24.135Z,3336.00
2018-05-24T11:01:24.097Z,3340.00
2018-05-24T11:02:24.064Z,3352.00
2018-05-24T11:03:24.110Z,3388.00
2018-05-24T11:04:24.002Z,3404.00
2018-05-24T11:05:23.960Z,3376.00
2018-05-24T11:06:23.990Z,3392.00
2018-05-24T11:07:23.886Z,3420.00
2018-05-24T11:08:23.851Z,3464.00
2018-05-24T11:09:23.841Z,3520.00
2018-05-24T11:10:23.781Z,3532.00
2018-05-24T11:11:23.748Z,3572.00
2018-05-24T11:12:23.736Z,3620.00
2018-05-24T11:13:23.681Z,3588.00
2018-05-24T11:14:23.643Z,3556.00
2018-05-24T11:15:23.625Z,3484.00
2018-05-24T11:16:23.568Z,3328.00
2018-05-24T11:17:23.535Z,3164.00
2018-05-24T11:18:23.497Z,3024.00
2018-05-24T11:19:23.467Z,2904.00
2018-05-24T11:20:23.426Z,2812.00
2018-05-24T11:21:23.418Z,2620.00
2018-05-24T11:22:23.359Z,2432.00
2018-05-24T11:23:23.339Z,2344.00
2018-05-24T11:24:23.288Z,2320.00
2018-05-24T11:25:23.271Z,2340.00
2018-05-24T11:26:23.220Z,2400.00
2018-05-24T11:27:23.213Z,2464.00
2018-05-24T11:28:23.150Z,2600.00
2018-05-24T11:29:23.111Z,2768.00
2018-05-24T11:30:23.086Z,2904.00
2018-05-24T11:31:23.050Z,3056.00
2018-05-24T11:32:23.007Z,3148.00
2018-05-24T11:33:22.995Z,3204.00
2018-05-24T11:34:22.939Z,3240.00
2018-05-24T11:35:22.900Z,3220.00
2018-05-24T11:36:22.865Z,3136.00
2018-05-24T11:37:22.844Z,3088.00
2018-05-24T11:38:22.794Z,3068.00
2018-05-24T11:39:22.785Z,2980.00
2018-05-24T11:40:22.720Z,2936.00
2018-05-24T11:41:22.694Z,2932.00
2018-05-24T11:42:22.664Z,2952.00
2018-05-24T11:43:22.655Z,2968.00
2018-05-24T11:44:22.582Z,2988.00
2018-05-24T11:45:22.577Z,3052.00
2018-05-24T11:46:22.517Z,3204.00
2018-05-24T11:47:22.488Z,3268.00
2018-05-24T11:48:22.442Z,3312.00
2018-05-24T11:49:22.409Z,3296.00
2018-05-24T11:50:22.372Z,3224.00
2018-05-24T11:51:22.431Z,3176.00
2018-05-24T11:52:22.311Z,3192.00
2018-05-24T11:53:22.266Z,3208.00
2018-05-24T11:54:22.235Z,3272.00
2018-05-24T11:55:22.196Z,3348.00
2018-05-24T11:56:22.163Z,3424.00
2018-05-24T11:57:22.154Z,3480.00
2018-05-24T11:58:22.100Z,3508.00
2018-05-24T11:59:22.053Z,3564.00
2018-05-24T12:00:22.022Z,3616.00
2018-05-24T12:01:21.988Z,3668.00
2018-05-24T12:02:21.950Z,3728.00
2018-05-24T12:03:21.933Z,3808.00
2018-05-24T12:04:21.882Z,3876.00
2018-05-24T12:05:21.843Z,3936.00
2018-05-24T12:06:21.808Z,3956.00
2018-05-24T12:07:21.773Z,3944.00
2018-05-24T12:08:21.740Z,3908.00
2018-05-24T12:09:21.723Z,3820.00
2018-05-24T12:10:21.666Z,3644.00
2018-05-24T12:11:22.353Z,3472.00
2018-05-24T12:12:21.599Z,3340.00
2018-05-24T12:13:21.563Z,3052.00
2018-05-24T12:14:21.524Z,2612.00
2018-05-24T12:15:21.580Z,2388.00
2018-05-24T12:16:21.455Z,2028.00
2018-05-24T12:17:21.441Z,1868.00
2018-05-24T12:18:27.194Z,1632.00
2018-05-24T12:19:26.870Z,1652.00
2018-05-24T12:20:21.314Z,1676.00
2018-05-24T12:21:21.308Z,1768.00
2018-05-24T12:22:24.008Z,1528.00
2018-05-24T12:23:21.212Z,1688.00
2018-05-24T12:24:21.175Z,1644.00
2018-05-24T12:25:21.141Z,1616.00
2018-05-24T12:26:21.139Z,1684.00
2018-05-24T12:27:21.094Z,1656.00
2018-05-24T12:28:21.040Z,1860.00
2018-05-24T12:29:21.001Z,1768.00